Clayhatchee, Alabama
Current Conditions -  °F | °C
As of 5:58 AM on Monday 20 Oct 2014 (Local Time) from KOZR Reporting Station
Clear Clear  
Wind Chill: 47°   Ceiling: Unl
Heat Index: 49°   Visibility: 10mi
Dew Point: 47°   Wind: 5mph
Humidity: 94%   Direction: 40°NE
Pressure: 30.06"   Gusts: NA
Location:  31.2347°N, 85.7586°W
Report Text: KOZR 201058Z AUTO 04004KT 10SM CLR 09/09 A3006 RMK AO2 SLP181 T00940085
Loading
Personal Weather Stations






























Interactive Weather Map New forecast layout! Learn more

10-Day Weather Forecast

Advertisements
Track Severe Weather on mobile